Time;durP1;ratioP1;P1;durP2;ratioP2;P2;SDS_P1;SDS_P2;PMS_P1;PMS_P2;Temp;Humidity;BMP_temperature;BMP_pressure;BME280_temperature;BME280_humidity;BME280_pressure;Samples;Min_cycle;Max_cycle;Signal;HPM_P1;HPM_P2
2023/12/30 00:03:22;;;;;;;9.93;4.90;;;;;;;;;;10013371;29;20038;-78
2023/12/30 00:08:23;;;;;;;10.00;4.60;;;;;;;;;;10014031;29;20041;-79
2023/12/30 00:13:24;;;;;;;9.03;4.97;;;;;;;;;;9996972;29;20052;-78
2023/12/30 00:18:25;;;;;;;9.47;4.90;;;;;;;;;;10013308;29;20044;-78
2023/12/30 00:23:27;;;;;;;7.93;4.83;;;;;;;;;;10013807;29;20110;-78
2023/12/30 00:28:34;;;;;;;10.57;5.13;;;;;;;;;;10013585;29;20053;-79
2023/12/30 00:33:35;;;;;;;9.07;4.87;;;;;;;;;;9996788;29;20804;-79
2023/12/30 00:38:36;;;;;;;10.20;5.00;;;;;;;;;;10014510;29;20035;-78
2023/12/30 00:43:37;;;;;;;9.30;4.43;;;;;;;;;;10013015;29;20041;-80
2023/12/30 00:48:38;;;;;;;11.20;5.40;;;;;;;;;;10012181;29;20106;-80
2023/12/30 00:53:39;;;;;;;10.73;5.30;;;;;;;;;;10012714;29;20106;-78
2023/12/30 00:58:40;;;;;;;7.17;4.30;;;;;;;;;;10011907;29;20046;-79
2023/12/30 01:03:41;;;;;;;8.17;4.40;;;;;;;;;;10011163;29;20046;-80
2023/12/30 01:08:42;;;;;;;8.07;4.97;;;;;;;;;;10012344;29;20049;-78
2023/12/30 01:13:43;;;;;;;10.30;5.50;;;;;;;;;;10011580;29;20463;-78
2023/12/30 01:18:44;;;;;;;8.83;4.70;;;;;;;;;;10012141;29;20122;-80
2023/12/30 01:23:45;;;;;;;10.37;5.70;;;;;;;;;;9994677;29;20132;-80
2023/12/30 01:28:46;;;;;;;8.73;5.20;;;;;;;;;;10011722;29;20129;-79
2023/12/30 01:33:47;;;;;;;7.57;4.60;;;;;;;;;;10009818;29;20061;-78
2023/12/30 01:38:48;;;;;;;7.23;4.10;;;;;;;;;;10011169;29;20037;-79
2023/12/30 01:43:49;;;;;;;7.13;4.30;;;;;;;;;;10011232;29;20046;-79
2023/12/30 01:48:50;;;;;;;7.00;4.30;;;;;;;;;;10011085;29;20053;-79
2023/12/30 01:53:58;;;;;;;7.73;4.60;;;;;;;;;;10010610;29;20037;-78
2023/12/30 01:59:00;;;;;;;7.73;4.30;;;;;;;;;;10010099;29;20440;-78
2023/12/30 02:04:02;;;;;;;10.33;4.77;;;;;;;;;;10008823;29;20045;-80
2023/12/30 02:09:03;;;;;;;7.67;4.33;;;;;;;;;;10010561;29;20045;-79
2023/12/30 02:14:04;;;;;;;8.60;4.37;;;;;;;;;;10010096;29;20040;-81
2023/12/30 02:19:05;;;;;;;6.67;3.70;;;;;;;;;;10009632;29;20418;-79
2023/12/30 02:24:07;;;;;;;8.47;4.37;;;;;;;;;;10009680;29;20034;-78
2023/12/30 02:29:08;;;;;;;7.80;4.40;;;;;;;;;;10008807;29;20062;-78
2023/12/30 02:34:09;;;;;;;6.30;3.60;;;;;;;;;;10008420;29;20434;-79
2023/12/30 02:39:10;;;;;;;5.93;3.90;;;;;;;;;;10009513;29;20025;-77
2023/12/30 02:44:15;;;;;;;7.80;4.20;;;;;;;;;;10009510;29;20486;-79
2023/12/30 02:49:16;;;;;;;5.03;3.60;;;;;;;;;;10008753;29;20045;-78
2023/12/30 02:54:17;;;;;;;6.60;3.67;;;;;;;;;;10008233;29;20046;-78
2023/12/30 02:59:18;;;;;;;6.13;3.77;;;;;;;;;;10008781;29;20517;-79
2023/12/30 03:04:19;;;;;;;7.37;4.47;;;;;;;;;;10021065;29;20046;-78
2023/12/30 03:09:20;;;;;;;6.03;3.77;;;;;;;;;;10009803;29;20042;-78
2023/12/30 03:14:21;;;;;;;6.30;3.80;;;;;;;;;;10020713;29;20663;-79
2023/12/30 03:19:22;;;;;;;8.07;4.03;;;;;;;;;;10009220;29;20036;-78
2023/12/30 03:24:23;;;;;;;7.67;4.80;;;;;;;;;;10007539;29;20034;-79
2023/12/30 03:29:24;;;;;;;8.93;4.90;;;;;;;;;;10007603;29;20052;-80
2023/12/30 03:34:25;;;;;;;7.47;4.40;;;;;;;;;;10007187;29;20054;-78
2023/12/30 03:39:26;;;;;;;7.97;4.50;;;;;;;;;;10009090;29;20041;-82
2023/12/30 03:44:27;;;;;;;5.63;3.67;;;;;;;;;;10013705;29;20380;-82
2023/12/30 03:49:28;;;;;;;5.10;3.13;;;;;;;;;;10014329;29;20050;-79
2023/12/30 03:54:30;;;;;;;5.90;3.77;;;;;;;;;;10014949;29;20100;-81
2023/12/30 03:59:31;;;;;;;6.83;3.57;;;;;;;;;;10002923;29;20026;-80
2023/12/30 04:04:32;;;;;;;5.83;3.40;;;;;;;;;;10013637;29;20064;-80
2023/12/30 04:09:33;;;;;;;5.73;3.33;;;;;;;;;;10014618;29;20046;-80
2023/12/30 04:14:34;;;;;;;7.83;4.23;;;;;;;;;;10016196;29;20044;-78
2023/12/30 04:19:35;;;;;;;8.53;5.00;;;;;;;;;;10013944;29;20034;-80
2023/12/30 04:24:36;;;;;;;8.73;4.40;;;;;;;;;;10014141;29;20037;-80
2023/12/30 04:29:37;;;;;;;6.83;4.40;;;;;;;;;;10013229;29;20634;-79
2023/12/30 04:34:38;;;;;;;8.13;4.57;;;;;;;;;;10012353;29;20122;-83
2023/12/30 04:39:39;;;;;;;6.40;4.00;;;;;;;;;;10013374;29;20037;-79
2023/12/30 04:44:40;;;;;;;8.17;4.73;;;;;;;;;;10013195;29;20046;-78
2023/12/30 04:49:41;;;;;;;8.73;4.43;;;;;;;;;;10011700;29;20714;-79
2023/12/30 04:54:42;;;;;;;8.23;4.67;;;;;;;;;;10000171;29;20095;-78
2023/12/30 04:59:50;;;;;;;9.77;5.00;;;;;;;;;;10005526;29;20113;-81
2023/12/30 05:04:51;;;;;;;7.20;3.73;;;;;;;;;;10007506;29;20046;-78
2023/12/30 05:09:52;;;;;;;7.83;4.30;;;;;;;;;;10012114;29;20042;-79
2023/12/30 05:14:53;;;;;;;7.47;4.07;;;;;;;;;;10012107;29;20041;-79
2023/12/30 05:19:54;;;;;;;9.47;4.40;;;;;;;;;;10005530;29;20038;-79
2023/12/30 05:24:55;;;;;;;8.53;4.67;;;;;;;;;;10005974;29;20041;-81
2023/12/30 05:29:56;;;;;;;7.23;4.37;;;;;;;;;;10007596;29;20052;-79
2023/12/30 05:34:57;;;;;;;6.43;3.87;;;;;;;;;;10010586;29;20477;-79
2023/12/30 05:39:58;;;;;;;6.93;3.73;;;;;;;;;;10010499;29;20086;-79
2023/12/30 05:44:59;;;;;;;6.97;3.50;;;;;;;;;;10007434;29;20094;-79
2023/12/30 05:50:06;;;;;;;11.00;5.13;;;;;;;;;;10009839;29;20049;-78
2023/12/30 05:55:07;;;;;;;7.60;4.30;;;;;;;;;;10010247;29;20121;-79
2023/12/30 06:00:09;;;;;;;7.43;4.50;;;;;;;;;;10010362;29;20505;-80
2023/12/30 06:05:10;;;;;;;7.53;4.10;;;;;;;;;;10005404;29;20029;-79
2023/12/30 06:10:11;;;;;;;6.60;4.17;;;;;;;;;;10020621;29;20045;-79
2023/12/30 06:15:12;;;;;;;7.53;4.33;;;;;;;;;;10010663;29;20033;-79
2023/12/30 06:20:13;;;;;;;6.53;4.10;;;;;;;;;;10008259;29;20048;-78
2023/12/30 06:25:14;;;;;;;9.97;5.40;;;;;;;;;;10005049;29;20049;-79
2023/12/30 06:30:15;;;;;;;9.23;4.67;;;;;;;;;;10002145;29;20042;-79
2023/12/30 06:35:16;;;;;;;9.93;4.70;;;;;;;;;;10007047;29;20145;-81
2023/12/30 06:40:17;;;;;;;7.67;4.40;;;;;;;;;;10009589;29;20394;-78
2023/12/30 06:45:18;;;;;;;9.23;4.30;;;;;;;;;;10010423;29;20044;-80
2023/12/30 06:50:21;;;;;;;7.17;4.13;;;;;;;;;;10009935;29;20427;-80
2023/12/30 06:55:23;;;;;;;7.07;3.87;;;;;;;;;;10005661;29;20158;-79
2023/12/30 07:00:24;;;;;;;6.67;4.10;;;;;;;;;;10007344;29;21015;-80
2023/12/30 07:05:25;;;;;;;8.17;4.77;;;;;;;;;;10004656;29;20420;-79
2023/12/30 07:10:26;;;;;;;8.10;4.70;;;;;;;;;;10006583;29;20455;-83
2023/12/30 07:15:27;;;;;;;9.53;4.70;;;;;;;;;;10005322;29;20030;-81
2023/12/30 07:20:28;;;;;;;9.13;4.50;;;;;;;;;;10011904;29;20040;-80
2023/12/30 07:25:29;;;;;;;6.67;4.40;;;;;;;;;;10002830;29;20126;-77
2023/12/30 07:30:30;;;;;;;12.30;5.43;;;;;;;;;;10004864;29;20133;-78
2023/12/30 07:35:31;;;;;;;8.90;5.40;;;;;;;;;;10008377;29;20768;-79
2023/12/30 07:40:32;;;;;;;10.73;5.70;;;;;;;;;;10008662;29;20125;-78
2023/12/30 07:45:33;;;;;;;9.27;5.27;;;;;;;;;;10013398;29;20749;-79
2023/12/30 07:50:34;;;;;;;11.40;5.70;;;;;;;;;;10009298;29;20038;-78
2023/12/30 07:55:35;;;;;;;14.23;7.20;;;;;;;;;;10012575;29;20050;-77
2023/12/30 08:00:37;;;;;;;7.90;4.37;;;;;;;;;;10012539;29;20118;-78
2023/12/30 08:05:39;;;;;;;8.30;4.43;;;;;;;;;;10012405;29;20475;-78
2023/12/30 08:10:40;;;;;;;11.70;4.47;;;;;;;;;;10006828;29;20562;-77
2023/12/30 08:15:43;;;;;;;7.67;4.37;;;;;;;;;;10012492;29;20034;-80
2023/12/30 08:20:44;;;;;;;9.33;4.43;;;;;;;;;;10014804;29;20122;-78
2023/12/30 08:25:45;;;;;;;10.27;4.70;;;;;;;;;;10013928;29;20046;-78
2023/12/30 08:30:46;;;;;;;5.47;3.53;;;;;;;;;;10011972;29;20107;-78
2023/12/30 08:35:48;;;;;;;6.33;3.60;;;;;;;;;;10009637;29;20054;-83
2023/12/30 08:40:49;;;;;;;11.03;5.53;;;;;;;;;;10009137;29;20049;-80
2023/12/30 08:45:51;;;;;;;8.53;4.83;;;;;;;;;;10003918;29;20510;-79
2023/12/30 08:50:51;;;;;;;8.87;4.87;;;;;;;;;;10011217;29;20038;-81
2023/12/30 08:55:54;;;;;;;9.33;4.63;;;;;;;;;;10008186;29;20034;-79
2023/12/30 09:00:55;;;;;;;11.57;5.13;;;;;;;;;;10001594;29;20037;-80
2023/12/30 09:05:56;;;;;;;11.77;6.03;;;;;;;;;;10005435;29;20424;-83
2023/12/30 09:11:04;;;;;;;13.83;7.03;;;;;;;;;;10005207;29;20054;-79
2023/12/30 09:16:05;;;;;;;11.70;5.73;;;;;;;;;;9996754;29;20034;-79
2023/12/30 09:21:06;;;;;;;11.93;5.13;;;;;;;;;;10002092;29;20033;-82
2023/12/30 09:26:30;;;;;;;10.37;5.53;;;;;;;;;;10008234;29;20033;-78
2023/12/30 09:31:31;;;;;;;8.30;4.37;;;;;;;;;;9990150;29;20418;-79
2023/12/30 09:36:32;;;;;;;6.83;3.70;;;;;;;;;;9996691;29;20073;-79
2023/12/30 09:41:34;;;;;;;6.83;2.87;;;;;;;;;;10007214;29;20038;-77
2023/12/30 09:46:42;;;;;;;6.43;3.50;;;;;;;;;;10002626;29;20519;-80
2023/12/30 09:51:43;;;;;;;7.70;4.00;;;;;;;;;;9999405;29;20498;-79
2023/12/30 09:56:44;;;;;;;7.47;2.77;;;;;;;;;;10011335;29;20034;-79
2023/12/30 10:01:45;;;;;;;5.43;2.20;;;;;;;;;;10007937;29;20038;-79
2023/12/30 10:06:47;;;;;;;7.50;3.10;;;;;;;;;;9999810;29;20046;-80
2023/12/30 10:11:56;;;;;;;11.07;4.20;;;;;;;;;;10007563;29;20054;-81
2023/12/30 10:16:57;;;;;;;10.20;3.33;;;;;;;;;;10007348;29;20034;-79
2023/12/30 10:21:58;;;;;;;8.93;3.07;;;;;;;;;;10000442;29;20034;-77
2023/12/30 10:27:04;;;;;;;7.50;3.87;;;;;;;;;;10009376;29;20049;-78
2023/12/30 10:32:08;;;;;;;15.00;6.85;;;;;;;;;;10003891;29;20041;-78
2023/12/30 10:37:16;;;;;;;7.40;3.57;;;;;;;;;;10006991;29;20054;-76
2023/12/30 10:42:17;;;;;;;16.57;7.20;;;;;;;;;;10007904;29;20053;-75
2023/12/30 10:47:20;;;;;;;26.37;13.23;;;;;;;;;;10004738;29;20042;-76
2023/12/30 10:52:23;;;;;;;25.67;13.67;;;;;;;;;;10011500;29;20038;-75
2023/12/30 10:57:28;;;;;;;36.07;18.53;;;;;;;;;;10007403;29;20107;-75
2023/12/30 11:02:31;;;;;;;41.67;23.80;;;;;;;;;;9999132;29;20044;-76
2023/12/30 11:07:32;;;;;;;41.63;26.50;;;;;;;;;;10014943;29;20407;-75
2023/12/30 11:12:34;;;;;;;27.23;13.37;;;;;;;;;;10008011;29;20034;-76
2023/12/30 11:17:36;;;;;;;21.43;10.50;;;;;;;;;;9989905;29;20034;-75
2023/12/30 11:22:37;;;;;;;25.63;14.83;;;;;;;;;;10014709;29;20034;-75
2023/12/30 11:27:39;;;;;;;22.67;12.63;;;;;;;;;;10011855;29;20041;-76
2023/12/30 11:32:46;;;;;;;31.33;16.07;;;;;;;;;;10014929;29;20671;-78
2023/12/30 11:37:50;;;;;;;22.20;12.07;;;;;;;;;;10016048;29;20439;-78
2023/12/30 11:42:51;;;;;;;22.60;13.57;;;;;;;;;;10013427;29;20030;-80
2023/12/30 11:47:52;;;;;;;25.20;15.70;;;;;;;;;;10013507;29;20498;-76
2023/12/30 11:52:53;;;;;;;27.30;13.67;;;;;;;;;;10009043;29;20037;-79
2023/12/30 11:57:55;;;;;;;20.77;10.43;;;;;;;;;;10006633;29;20058;-79
2023/12/30 12:08:26;;;;;;;38.83;20.40;;;;;;;;;;10002619;29;20058;-81
2023/12/30 12:13:27;;;;;;;34.63;17.13;;;;;;;;;;10015425;29;20034;-80
2023/12/30 12:18:35;;;;;;;35.40;18.53;;;;;;;;;;9997730;29;20846;-78
2023/12/30 12:23:40;;;;;;;46.47;22.27;;;;;;;;;;9996665;29;20157;-80
2023/12/30 12:28:44;;;;;;;77.18;35.13;;;;;;;;;;9993336;29;20050;-83
2023/12/30 12:33:45;;;;;;;52.33;26.80;;;;;;;;;;9978852;29;20117;-80
2023/12/30 12:38:52;;;;;;;38.83;19.23;;;;;;;;;;9986914;29;20085;-78
2023/12/30 12:43:53;;;;;;;65.47;31.57;;;;;;;;;;10007830;29;20518;-81
2023/12/30 12:48:54;;;;;;;54.13;26.10;;;;;;;;;;9994112;29;20045;-80
2023/12/30 12:53:56;;;;;;;57.87;27.80;;;;;;;;;;10012079;29;20558;-78
2023/12/30 12:58:57;;;;;;;55.93;28.03;;;;;;;;;;10013189;29;20478;-78
2023/12/30 13:03:58;;;;;;;52.00;26.00;;;;;;;;;;9994945;29;20035;-80
2023/12/30 13:09:01;;;;;;;57.23;27.27;;;;;;;;;;10007669;29;20404;-81
2023/12/30 13:14:08;;;;;;;41.10;21.50;;;;;;;;;;10013016;29;20061;-80
2023/12/30 13:19:10;;;;;;;39.07;18.90;;;;;;;;;;9988317;29;20042;-82
2023/12/30 13:24:11;;;;;;;66.80;31.00;;;;;;;;;;10013816;29;20034;-82
2023/12/30 13:29:12;;;;;;;49.13;25.30;;;;;;;;;;10007383;29;20061;-77
2023/12/30 13:34:15;;;;;;;39.20;20.30;;;;;;;;;;9996562;29;20061;-82
2023/12/30 13:39:17;;;;;;;49.80;24.20;;;;;;;;;;9994986;29;20026;-81
2023/12/30 13:44:18;;;;;;;38.03;21.30;;;;;;;;;;9987735;29;20046;-79
2023/12/30 13:54:23;;;;;;;35.40;20.03;;;;;;;;;;10004237;29;20038;-79
2023/12/30 13:59:25;;;;;;;32.70;17.80;;;;;;;;;;10007011;29;20174;-82
2023/12/30 14:04:26;;;;;;;26.07;15.23;;;;;;;;;;10009154;29;20383;-83
2023/12/30 14:09:39;;;;;;;43.07;20.37;;;;;;;;;;10007924;29;20521;-79
2023/12/30 14:14:53;;;;;;;51.77;24.20;;;;;;;;;;10010516;29;20132;-81
2023/12/30 14:19:54;;;;;;;46.93;21.33;;;;;;;;;;10009687;29;20292;-79
2023/12/30 14:24:56;;;;;;;41.60;19.63;;;;;;;;;;10010271;29;20046;-85
2023/12/30 14:30:00;;;;;;;36.70;17.50;;;;;;;;;;10007476;29;20046;-78
2023/12/30 14:35:02;;;;;;;40.57;20.30;;;;;;;;;;10006897;29;20069;-80
2023/12/30 14:40:06;;;;;;;44.77;23.80;;;;;;;;;;10005448;29;20038;-79
2023/12/30 14:45:07;;;;;;;53.60;24.83;;;;;;;;;;9993662;29;20126;-84
2023/12/30 14:50:08;;;;;;;47.73;21.30;;;;;;;;;;9997902;29;20050;-81
2023/12/30 14:55:10;;;;;;;64.83;25.97;;;;;;;;;;10002700;29;20073;-81
2023/12/30 15:00:15;;;;;;;49.67;22.27;;;;;;;;;;10001485;29;20034;-79
2023/12/30 15:05:16;;;;;;;50.23;23.33;;;;;;;;;;10004115;29;20072;-79
2023/12/30 15:10:17;;;;;;;51.10;24.23;;;;;;;;;;10005098;29;20526;-79
2023/12/30 15:15:18;;;;;;;53.90;24.70;;;;;;;;;;10005029;29;20059;-79
2023/12/30 15:20:19;;;;;;;48.80;24.77;;;;;;;;;;10005560;29;20033;-79
2023/12/30 15:25:20;;;;;;;50.73;24.60;;;;;;;;;;10003171;29;20078;-82
2023/12/30 15:30:24;;;;;;;52.13;23.03;;;;;;;;;;10008290;29;20460;-79
2023/12/30 15:35:26;;;;;;;41.27;20.00;;;;;;;;;;10007689;29;20060;-79
2023/12/30 15:40:27;;;;;;;69.67;31.93;;;;;;;;;;10013532;29;20671;-80
2023/12/30 15:45:34;;;;;;;52.53;27.17;;;;;;;;;;10000148;29;20108;-79
2023/12/30 15:50:35;;;;;;;57.93;28.17;;;;;;;;;;10006701;29;20045;-78
2023/12/30 15:55:36;;;;;;;61.37;30.20;;;;;;;;;;10014759;29;20041;-79
2023/12/30 16:00:37;;;;;;;68.17;31.50;;;;;;;;;;10025647;29;20045;-82
2023/12/30 16:05:38;;;;;;;87.50;39.37;;;;;;;;;;10005508;29;20233;-79
2023/12/30 16:10:39;;;;;;;84.53;37.47;;;;;;;;;;10009177;29;20098;-78
2023/12/30 16:15:42;;;;;;;53.33;26.73;;;;;;;;;;9976827;29;20034;-77
2023/12/30 16:20:43;;;;;;;56.27;27.47;;;;;;;;;;9991708;29;20034;-80
2023/12/30 16:25:45;;;;;;;84.37;40.47;;;;;;;;;;10012002;29;20034;-79
2023/12/30 16:30:46;;;;;;;73.77;36.37;;;;;;;;;;10000855;29;20046;-80
2023/12/30 16:35:47;;;;;;;96.43;47.73;;;;;;;;;;9988264;29;20058;-79
2023/12/30 16:40:48;;;;;;;80.10;43.70;;;;;;;;;;10006768;29;20457;-80
2023/12/30 16:45:49;;;;;;;55.23;26.27;;;;;;;;;;9995497;29;20083;-79
2023/12/30 16:50:50;;;;;;;42.67;22.10;;;;;;;;;;10010406;29;20098;-79
2023/12/30 16:55:51;;;;;;;40.17;21.77;;;;;;;;;;9989354;29;20033;-82
2023/12/30 17:00:52;;;;;;;67.23;37.67;;;;;;;;;;10005899;29;20058;-83
2023/12/30 17:05:54;;;;;;;51.30;26.93;;;;;;;;;;9999415;29;20038;-79
2023/12/30 17:10:55;;;;;;;82.30;44.53;;;;;;;;;;10006994;29;20149;-79
2023/12/30 17:15:56;;;;;;;98.57;50.50;;;;;;;;;;10005627;29;20101;-83
2023/12/30 17:20:57;;;;;;;69.20;36.87;;;;;;;;;;10008607;29;20091;-80
2023/12/30 17:26:04;;;;;;;46.60;25.63;;;;;;;;;;10009427;29;20061;-80
2023/12/30 17:31:08;;;;;;;48.70;26.47;;;;;;;;;;10011787;29;20046;-80
2023/12/30 17:36:09;;;;;;;68.27;34.33;;;;;;;;;;10010607;29;20069;-81
2023/12/30 17:41:10;;;;;;;72.03;35.23;;;;;;;;;;10021618;29;20045;-80
2023/12/30 17:46:11;;;;;;;59.73;29.07;;;;;;;;;;10005229;29;20472;-79
2023/12/30 17:51:12;;;;;;;32.30;17.37;;;;;;;;;;10006996;29;20042;-79
2023/12/30 17:56:14;;;;;;;19.87;8.43;;;;;;;;;;10000737;29;20037;-81
2023/12/30 18:01:15;;;;;;;26.03;13.13;;;;;;;;;;10009448;29;20038;-83
2023/12/30 18:06:16;;;;;;;40.80;17.17;;;;;;;;;;10004334;29;20074;-80
2023/12/30 18:11:17;;;;;;;45.23;19.73;;;;;;;;;;10010012;29;20046;-82
2023/12/30 18:16:18;;;;;;;36.50;19.33;;;;;;;;;;10006893;29;20618;-82
2023/12/30 18:21:20;;;;;;;37.53;19.80;;;;;;;;;;10010466;29;20068;-83
2023/12/30 18:26:21;;;;;;;48.57;22.90;;;;;;;;;;9995049;29;20128;-80
2023/12/30 18:31:23;;;;;;;92.97;41.30;;;;;;;;;;10009866;29;20050;-82
2023/12/30 18:36:24;;;;;;;78.20;31.53;;;;;;;;;;10006654;29;20056;-83
2023/12/30 18:41:25;;;;;;;60.07;27.13;;;;;;;;;;9991133;29;20033;-85
2023/12/30 18:46:26;;;;;;;50.53;26.37;;;;;;;;;;9997619;29;20054;-80
2023/12/30 18:51:27;;;;;;;54.67;27.33;;;;;;;;;;9997344;29;20067;-79
2023/12/30 18:56:30;;;;;;;44.53;21.53;;;;;;;;;;9995081;29;20038;-80
2023/12/30 19:01:31;;;;;;;62.63;27.03;;;;;;;;;;10004124;29;20049;-80
2023/12/30 19:06:32;;;;;;;55.90;24.77;;;;;;;;;;10010986;29;20041;-81
2023/12/30 19:11:34;;;;;;;98.60;39.50;;;;;;;;;;10011777;29;20463;-80
2023/12/30 19:16:35;;;;;;;73.03;26.03;;;;;;;;;;10003172;29;20042;-81
2023/12/30 19:21:36;;;;;;;133.47;49.60;;;;;;;;;;10027968;29;20145;-82
2023/12/30 19:26:37;;;;;;;114.30;42.60;;;;;;;;;;10016420;29;20487;-81
2023/12/30 19:31:38;;;;;;;133.23;55.50;;;;;;;;;;10004114;29;20110;-81
2023/12/30 19:36:39;;;;;;;125.73;52.00;;;;;;;;;;9978375;29;20086;-81
2023/12/30 19:41:42;;;;;;;130.17;58.27;;;;;;;;;;9977072;29;20056;-83
2023/12/30 19:46:43;;;;;;;158.70;71.60;;;;;;;;;;9974789;29;20675;-82
2023/12/30 19:51:44;;;;;;;167.20;81.53;;;;;;;;;;9980179;29;20127;-82
2023/12/30 19:56:45;;;;;;;138.53;66.43;;;;;;;;;;9975042;29;20505;-84
2023/12/30 20:01:50;;;;;;;168.87;90.87;;;;;;;;;;9975911;29;20038;-84
2023/12/30 20:06:52;;;;;;;159.77;87.87;;;;;;;;;;9973794;29;20117;-82
2023/12/30 20:11:53;;;;;;;168.20;82.73;;;;;;;;;;9970241;29;20042;-79
2023/12/30 20:17:00;;;;;;;102.07;49.63;;;;;;;;;;9972853;29;21799;-79
2023/12/30 20:22:01;;;;;;;73.50;37.03;;;;;;;;;;9976549;29;20042;-80
2023/12/30 20:27:03;;;;;;;68.47;36.57;;;;;;;;;;9967304;29;20042;-79
2023/12/30 20:32:11;;;;;;;72.53;40.37;;;;;;;;;;9974906;29;20079;-82
2023/12/30 20:37:12;;;;;;;78.27;40.53;;;;;;;;;;9996780;29;20046;-82
2023/12/30 20:42:13;;;;;;;90.07;45.80;;;;;;;;;;10010771;29;20375;-80
2023/12/30 20:47:14;;;;;;;84.77;44.90;;;;;;;;;;9988309;29;20050;-80
2023/12/30 20:52:15;;;;;;;95.30;47.77;;;;;;;;;;10006035;29;20034;-79
2023/12/30 20:57:16;;;;;;;79.00;39.90;;;;;;;;;;10005587;29;20101;-80
2023/12/30 21:02:17;;;;;;;108.40;56.70;;;;;;;;;;10011760;29;20074;-83
2023/12/30 21:07:18;;;;;;;97.23;54.33;;;;;;;;;;10003614;29;20410;-81
2023/12/30 21:12:19;;;;;;;89.43;49.20;;;;;;;;;;10008133;29;20041;-84
2023/12/30 21:17:20;;;;;;;91.17;49.10;;;;;;;;;;10007513;29;20623;-81
2023/12/30 21:22:30;;;;;;;116.20;60.40;;;;;;;;;;10011625;29;20026;-81
2023/12/30 21:27:32;;;;;;;128.33;65.13;;;;;;;;;;9996981;29;20194;-80
2023/12/30 21:32:33;;;;;;;141.67;64.60;;;;;;;;;;9993861;29;20128;-81
2023/12/30 21:37:41;;;;;;;121.23;58.30;;;;;;;;;;9983391;29;20451;-81
2023/12/30 21:42:51;;;;;;;138.20;61.40;;;;;;;;;;10010919;29;20037;-82
2023/12/30 21:47:52;;;;;;;99.43;47.00;;;;;;;;;;10011415;29;20703;-84
2023/12/30 21:52:54;;;;;;;93.23;45.83;;;;;;;;;;10004901;29;20042;-81
2023/12/30 22:14:38;;;;;;;113.17;55.47;;;;;;;;;;10280966;23;20222;-81
2023/12/30 22:19:40;;;;;;;148.23;78.80;;;;;;;;;;10036208;29;20487;-81
2023/12/30 22:24:44;;;;;;;133.13;70.77;;;;;;;;;;10034540;29;20069;-80
2023/12/30 22:35:55;;;;;;;129.57;63.37;;;;;;;;;;9971403;29;20440;-79
2023/12/30 22:40:59;;;;;;;157.97;79.53;;;;;;;;;;9975543;29;20435;-81
2023/12/30 22:46:01;;;;;;;172.47;84.00;;;;;;;;;;9998800;29;20530;-81
2023/12/30 22:51:03;;;;;;;159.87;77.57;;;;;;;;;;10024774;29;20041;-80
2023/12/30 22:56:05;;;;;;;107.07;52.67;;;;;;;;;;10002390;29;20976;-83
2023/12/30 23:01:06;;;;;;;91.17;44.83;;;;;;;;;;10012106;29;20039;-83
2023/12/30 23:06:08;;;;;;;85.80;43.07;;;;;;;;;;10023065;29;20044;-80
2023/12/30 23:11:10;;;;;;;78.77;39.43;;;;;;;;;;10020437;29;20077;-80
2023/12/30 23:16:13;;;;;;;52.10;26.00;;;;;;;;;;10005372;29;20453;-80
2023/12/30 23:21:14;;;;;;;48.57;21.77;;;;;;;;;;10024516;29;20546;-80
2023/12/30 23:26:22;;;;;;;44.93;20.60;;;;;;;;;;10018624;29;20036;-81
2023/12/30 23:31:23;;;;;;;48.50;21.33;;;;;;;;;;10018236;29;20050;-82
2023/12/30 23:36:24;;;;;;;41.23;20.37;;;;;;;;;;10014081;29;20063;-83
2023/12/30 23:41:26;;;;;;;54.97;27.13;;;;;;;;;;10011572;29;20046;-81
2023/12/30 23:46:27;;;;;;;75.27;34.87;;;;;;;;;;10007680;29;20561;-81
2023/12/30 23:51:28;;;;;;;86.50;40.03;;;;;;;;;;10020125;29;20121;-80
2023/12/30 23:56:29;;;;;;;104.27;45.70;;;;;;;;;;10011415;29;20034;-80
